sensor_id;sensor_type;location;lat;lon;timestamp;P1;durP1;ratioP1;P2;durP2;ratioP2
39098;SDS011;24844;52.380;7.018;2022-12-18T00:01:51;104.03;;;37.60;;
39098;SDS011;24844;52.380;7.018;2022-12-18T00:04:21;110.82;;;39.75;;
39098;SDS011;24844;52.380;7.018;2022-12-18T00:06:48;106.97;;;40.30;;
39098;SDS011;24844;52.380;7.018;2022-12-18T00:09:14;110.03;;;38.88;;
39098;SDS011;24844;52.380;7.018;2022-12-18T00:11:40;113.22;;;40.58;;
39098;SDS011;24844;52.380;7.018;2022-12-18T00:14:06;102.80;;;38.45;;
39098;SDS011;24844;52.380;7.018;2022-12-18T00:16:32;95.85;;;36.95;;
39098;SDS011;24844;52.380;7.018;2022-12-18T00:19:00;94.82;;;37.85;;
39098;SDS011;24844;52.380;7.018;2022-12-18T00:21:26;88.22;;;34.72;;
39098;SDS011;24844;52.380;7.018;2022-12-18T00:23:53;97.50;;;37.03;;
39098;SDS011;24844;52.380;7.018;2022-12-18T00:26:22;80.53;;;34.28;;
39098;SDS011;24844;52.380;7.018;2022-12-18T00:28:50;77.40;;;32.17;;
39098;SDS011;24844;52.380;7.018;2022-12-18T00:31:17;83.78;;;34.35;;
39098;SDS011;24844;52.380;7.018;2022-12-18T00:33:44;87.50;;;33.92;;
39098;SDS011;24844;52.380;7.018;2022-12-18T00:36:11;88.55;;;33.90;;
39098;SDS011;24844;52.380;7.018;2022-12-18T00:38:38;87.10;;;33.40;;
39098;SDS011;24844;52.380;7.018;2022-12-18T00:41:05;83.97;;;35.05;;
39098;SDS011;24844;52.380;7.018;2022-12-18T00:43:32;83.65;;;34.92;;
39098;SDS011;24844;52.380;7.018;2022-12-18T00:45:57;82.32;;;29.90;;
39098;SDS011;24844;52.380;7.018;2022-12-18T00:48:23;82.85;;;34.45;;
39098;SDS011;24844;52.380;7.018;2022-12-18T00:50:49;82.72;;;34.33;;
39098;SDS011;24844;52.380;7.018;2022-12-18T00:53:15;87.20;;;35.15;;
39098;SDS011;24844;52.380;7.018;2022-12-18T00:55:42;84.28;;;34.10;;
39098;SDS011;24844;52.380;7.018;2022-12-18T00:58:08;81.10;;;33.47;;
39098;SDS011;24844;52.380;7.018;2022-12-18T01:00:35;96.50;;;36.38;;
39098;SDS011;24844;52.380;7.018;2022-12-18T01:03:01;91.70;;;35.35;;
39098;SDS011;24844;52.380;7.018;2022-12-18T01:05:27;95.53;;;36.67;;
39098;SDS011;24844;52.380;7.018;2022-12-18T01:07:53;89.13;;;35.10;;
39098;SDS011;24844;52.380;7.018;2022-12-18T01:10:20;80.05;;;33.13;;
39098;SDS011;24844;52.380;7.018;2022-12-18T01:12:45;82.82;;;33.38;;
39098;SDS011;24844;52.380;7.018;2022-12-18T01:15:11;86.38;;;35.03;;
39098;SDS011;24844;52.380;7.018;2022-12-18T01:17:38;85.28;;;34.75;;
39098;SDS011;24844;52.380;7.018;2022-12-18T01:20:03;87.13;;;33.10;;
39098;SDS011;24844;52.380;7.018;2022-12-18T01:22:29;79.13;;;31.75;;
39098;SDS011;24844;52.380;7.018;2022-12-18T01:24:55;84.78;;;33.63;;
39098;SDS011;24844;52.380;7.018;2022-12-18T01:27:21;79.15;;;32.30;;
39098;SDS011;24844;52.380;7.018;2022-12-18T01:29:46;89.47;;;35.97;;
39098;SDS011;24844;52.380;7.018;2022-12-18T01:32:12;84.95;;;31.75;;
39098;SDS011;24844;52.380;7.018;2022-12-18T01:34:37;86.03;;;34.20;;
39098;SDS011;24844;52.380;7.018;2022-12-18T01:37:04;86.18;;;35.10;;
39098;SDS011;24844;52.380;7.018;2022-12-18T01:39:29;85.75;;;34.08;;
39098;SDS011;24844;52.380;7.018;2022-12-18T01:41:56;89.65;;;34.13;;
39098;SDS011;24844;52.380;7.018;2022-12-18T01:47:20;90.90;;;33.58;;
39098;SDS011;24844;52.380;7.018;2022-12-18T01:49:55;92.63;;;34.47;;
39098;SDS011;24844;52.380;7.018;2022-12-18T01:52:24;90.15;;;34.10;;
39098;SDS011;24844;52.380;7.018;2022-12-18T01:54:53;88.70;;;33.58;;
39098;SDS011;24844;52.380;7.018;2022-12-18T01:57:19;85.28;;;33.30;;
39098;SDS011;24844;52.380;7.018;2022-12-18T01:59:46;84.47;;;33.90;;
39098;SDS011;24844;52.380;7.018;2022-12-18T02:02:15;86.40;;;33.47;;
39098;SDS011;24844;52.380;7.018;2022-12-18T02:04:42;81.00;;;32.67;;
39098;SDS011;24844;52.380;7.018;2022-12-18T02:10:42;86.90;;;34.03;;
39098;SDS011;24844;52.380;7.018;2022-12-18T02:16:08;85.20;;;31.73;;
39098;SDS011;24844;52.380;7.018;2022-12-18T02:18:39;76.10;;;29.13;;
39098;SDS011;24844;52.380;7.018;2022-12-18T02:21:11;82.05;;;32.05;;
39098;SDS011;24844;52.380;7.018;2022-12-18T02:26:16;71.38;;;29.42;;
39098;SDS011;24844;52.380;7.018;2022-12-18T02:29:15;54.47;;;21.20;;
39098;SDS011;24844;52.380;7.018;2022-12-18T02:31:47;67.50;;;27.35;;
39098;SDS011;24844;52.380;7.018;2022-12-18T02:34:16;78.75;;;31.20;;
39098;SDS011;24844;52.380;7.018;2022-12-18T02:36:43;79.70;;;31.88;;
39098;SDS011;24844;52.380;7.018;2022-12-18T02:39:11;77.97;;;31.63;;
39098;SDS011;24844;52.380;7.018;2022-12-18T02:41:38;79.60;;;32.73;;
39098;SDS011;24844;52.380;7.018;2022-12-18T02:44:12;83.10;;;32.88;;
39098;SDS011;24844;52.380;7.018;2022-12-18T02:46:42;78.47;;;31.42;;
39098;SDS011;24844;52.380;7.018;2022-12-18T02:49:20;69.88;;;28.90;;
39098;SDS011;24844;52.380;7.018;2022-12-18T02:55:17;82.05;;;30.90;;
39098;SDS011;24844;52.380;7.018;2022-12-18T03:00:41;84.78;;;32.65;;
39098;SDS011;24844;52.380;7.018;2022-12-18T03:03:16;77.60;;;31.60;;
39098;SDS011;24844;52.380;7.018;2022-12-18T03:05:58;77.55;;;31.63;;
39098;SDS011;24844;52.380;7.018;2022-12-18T03:08:33;76.68;;;31.30;;
39098;SDS011;24844;52.380;7.018;2022-12-18T03:11:07;74.18;;;30.55;;
39098;SDS011;24844;52.380;7.018;2022-12-18T03:13:43;72.80;;;30.48;;
39098;SDS011;24844;52.380;7.018;2022-12-18T03:16:18;79.28;;;31.33;;
39098;SDS011;24844;52.380;7.018;2022-12-18T03:18:54;73.32;;;29.92;;
39098;SDS011;24844;52.380;7.018;2022-12-18T03:21:23;85.63;;;31.98;;
39098;SDS011;24844;52.380;7.018;2022-12-18T03:23:55;90.13;;;34.25;;
39098;SDS011;24844;52.380;7.018;2022-12-18T03:26:22;78.40;;;32.58;;
39098;SDS011;24844;52.380;7.018;2022-12-18T03:29:26;77.95;;;31.80;;
39098;SDS011;24844;52.380;7.018;2022-12-18T03:31:51;82.53;;;33.08;;
39098;SDS011;24844;52.380;7.018;2022-12-18T03:34:22;76.10;;;31.02;;
39098;SDS011;24844;52.380;7.018;2022-12-18T03:36:51;74.32;;;29.48;;
39098;SDS011;24844;52.380;7.018;2022-12-18T03:39:17;79.97;;;32.70;;
39098;SDS011;24844;52.380;7.018;2022-12-18T03:41:51;77.70;;;31.88;;
39098;SDS011;24844;52.380;7.018;2022-12-18T03:44:28;83.78;;;33.33;;
39098;SDS011;24844;52.380;7.018;2022-12-18T03:49:53;73.45;;;30.45;;
39098;SDS011;24844;52.380;7.018;2022-12-18T03:52:29;70.38;;;28.13;;
39098;SDS011;24844;52.380;7.018;2022-12-18T03:55:12;70.63;;;30.67;;
39098;SDS011;24844;52.380;7.018;2022-12-18T03:57:38;71.88;;;30.23;;
39098;SDS011;24844;52.380;7.018;2022-12-18T04:00:11;75.47;;;30.53;;
39098;SDS011;24844;52.380;7.018;2022-12-18T04:02:38;77.63;;;30.67;;
39098;SDS011;24844;52.380;7.018;2022-12-18T04:05:07;69.03;;;29.05;;
39098;SDS011;24844;52.380;7.018;2022-12-18T04:07:35;62.72;;;27.15;;
39098;SDS011;24844;52.380;7.018;2022-12-18T04:10:02;76.28;;;29.65;;
39098;SDS011;24844;52.380;7.018;2022-12-18T04:12:31;71.20;;;30.35;;
39098;SDS011;24844;52.380;7.018;2022-12-18T04:14:56;72.28;;;30.38;;
39098;SDS011;24844;52.380;7.018;2022-12-18T04:17:22;71.43;;;29.95;;
39098;SDS011;24844;52.380;7.018;2022-12-18T04:19:48;72.10;;;30.40;;
39098;SDS011;24844;52.380;7.018;2022-12-18T04:22:14;70.97;;;29.40;;
39098;SDS011;24844;52.380;7.018;2022-12-18T04:24:40;73.40;;;29.95;;
39098;SDS011;24844;52.380;7.018;2022-12-18T04:27:05;74.47;;;31.98;;
39098;SDS011;24844;52.380;7.018;2022-12-18T04:29:31;69.05;;;28.90;;
39098;SDS011;24844;52.380;7.018;2022-12-18T04:31:57;68.85;;;28.35;;
39098;SDS011;24844;52.380;7.018;2022-12-18T04:34:22;69.93;;;30.30;;
39098;SDS011;24844;52.380;7.018;2022-12-18T04:36:48;67.20;;;29.80;;
39098;SDS011;24844;52.380;7.018;2022-12-18T04:39:14;56.28;;;26.52;;
39098;SDS011;24844;52.380;7.018;2022-12-18T04:41:39;68.15;;;29.40;;
39098;SDS011;24844;52.380;7.018;2022-12-18T04:44:06;57.67;;;26.10;;
39098;SDS011;24844;52.380;7.018;2022-12-18T04:46:31;60.55;;;26.73;;
39098;SDS011;24844;52.380;7.018;2022-12-18T04:48:57;65.57;;;29.40;;
39098;SDS011;24844;52.380;7.018;2022-12-18T04:51:22;64.95;;;29.45;;
39098;SDS011;24844;52.380;7.018;2022-12-18T04:53:48;64.90;;;28.58;;
39098;SDS011;24844;52.380;7.018;2022-12-18T04:56:14;71.22;;;30.23;;
39098;SDS011;24844;52.380;7.018;2022-12-18T04:58:42;64.25;;;26.63;;
39098;SDS011;24844;52.380;7.018;2022-12-18T05:01:09;65.55;;;26.88;;
39098;SDS011;24844;52.380;7.018;2022-12-18T05:03:36;66.30;;;28.70;;
39098;SDS011;24844;52.380;7.018;2022-12-18T05:06:02;64.35;;;27.70;;
39098;SDS011;24844;52.380;7.018;2022-12-18T05:08:29;67.05;;;27.25;;
39098;SDS011;24844;52.380;7.018;2022-12-18T05:10:58;65.18;;;28.38;;
39098;SDS011;24844;52.380;7.018;2022-12-18T05:13:28;64.95;;;26.60;;
39098;SDS011;24844;52.380;7.018;2022-12-18T05:15:53;69.00;;;29.70;;
39098;SDS011;24844;52.380;7.018;2022-12-18T05:18:20;57.65;;;25.52;;
39098;SDS011;24844;52.380;7.018;2022-12-18T05:20:46;55.08;;;26.17;;
39098;SDS011;24844;52.380;7.018;2022-12-18T05:23:12;53.15;;;24.58;;
39098;SDS011;24844;52.380;7.018;2022-12-18T05:25:37;56.25;;;25.48;;
39098;SDS011;24844;52.380;7.018;2022-12-18T05:28:03;53.97;;;24.90;;
39098;SDS011;24844;52.380;7.018;2022-12-18T05:30:29;54.05;;;23.80;;
39098;SDS011;24844;52.380;7.018;2022-12-18T05:32:54;47.72;;;23.42;;
39098;SDS011;24844;52.380;7.018;2022-12-18T05:35:20;43.67;;;20.05;;
39098;SDS011;24844;52.380;7.018;2022-12-18T05:37:46;44.05;;;22.35;;
39098;SDS011;24844;52.380;7.018;2022-12-18T05:40:12;50.45;;;22.02;;
39098;SDS011;24844;52.380;7.018;2022-12-18T05:42:37;55.55;;;25.83;;
39098;SDS011;24844;52.380;7.018;2022-12-18T05:45:03;52.47;;;24.58;;
39098;SDS011;24844;52.380;7.018;2022-12-18T05:47:30;54.63;;;25.13;;
39098;SDS011;24844;52.380;7.018;2022-12-18T05:49:55;47.63;;;22.48;;
39098;SDS011;24844;52.380;7.018;2022-12-18T05:52:21;42.80;;;20.17;;
39098;SDS011;24844;52.380;7.018;2022-12-18T05:54:47;45.45;;;20.67;;
39098;SDS011;24844;52.380;7.018;2022-12-18T05:57:12;41.38;;;19.70;;
39098;SDS011;24844;52.380;7.018;2022-12-18T05:59:38;42.42;;;20.40;;
39098;SDS011;24844;52.380;7.018;2022-12-18T06:02:04;40.75;;;19.58;;
39098;SDS011;24844;52.380;7.018;2022-12-18T06:04:29;55.47;;;25.17;;
39098;SDS011;24844;52.380;7.018;2022-12-18T06:06:55;53.85;;;25.60;;
39098;SDS011;24844;52.380;7.018;2022-12-18T06:09:20;55.67;;;24.70;;
39098;SDS011;24844;52.380;7.018;2022-12-18T06:11:46;54.88;;;24.60;;
39098;SDS011;24844;52.380;7.018;2022-12-18T06:14:12;57.30;;;25.52;;
39098;SDS011;24844;52.380;7.018;2022-12-18T06:16:37;53.40;;;23.98;;
39098;SDS011;24844;52.380;7.018;2022-12-18T06:19:04;51.63;;;25.02;;
39098;SDS011;24844;52.380;7.018;2022-12-18T06:21:31;52.03;;;25.90;;
39098;SDS011;24844;52.380;7.018;2022-12-18T06:23:57;54.85;;;24.17;;
39098;SDS011;24844;52.380;7.018;2022-12-18T06:26:23;54.75;;;26.33;;
39098;SDS011;24844;52.380;7.018;2022-12-18T06:28:49;51.78;;;22.85;;
39098;SDS011;24844;52.380;7.018;2022-12-18T06:31:14;44.80;;;22.35;;
39098;SDS011;24844;52.380;7.018;2022-12-18T06:33:40;46.92;;;22.98;;
39098;SDS011;24844;52.380;7.018;2022-12-18T06:36:07;40.47;;;20.90;;
39098;SDS011;24844;52.380;7.018;2022-12-18T06:38:36;46.05;;;21.55;;
39098;SDS011;24844;52.380;7.018;2022-12-18T06:41:06;50.83;;;22.80;;
39098;SDS011;24844;52.380;7.018;2022-12-18T06:43:36;39.40;;;18.60;;
39098;SDS011;24844;52.380;7.018;2022-12-18T06:46:02;32.22;;;17.02;;
39098;SDS011;24844;52.380;7.018;2022-12-18T06:48:28;35.75;;;16.63;;
39098;SDS011;24844;52.380;7.018;2022-12-18T06:50:54;45.47;;;18.80;;
39098;SDS011;24844;52.380;7.018;2022-12-18T06:53:20;84.57;;;21.38;;
39098;SDS011;24844;52.380;7.018;2022-12-18T06:55:46;513.45;;;39.58;;
39098;SDS011;24844;52.380;7.018;2022-12-18T06:58:11;48.92;;;21.48;;
39098;SDS011;24844;52.380;7.018;2022-12-18T07:00:37;42.22;;;19.13;;
39098;SDS011;24844;52.380;7.018;2022-12-18T07:03:02;41.83;;;20.40;;
39098;SDS011;24844;52.380;7.018;2022-12-18T07:05:28;44.40;;;20.25;;
39098;SDS011;24844;52.380;7.018;2022-12-18T07:07:54;43.10;;;21.30;;
39098;SDS011;24844;52.380;7.018;2022-12-18T07:10:19;43.85;;;20.17;;
39098;SDS011;24844;52.380;7.018;2022-12-18T07:12:45;43.88;;;21.88;;
39098;SDS011;24844;52.380;7.018;2022-12-18T07:15:11;46.90;;;21.70;;
39098;SDS011;24844;52.380;7.018;2022-12-18T07:17:36;46.17;;;22.98;;
39098;SDS011;24844;52.380;7.018;2022-12-18T07:20:02;40.58;;;21.25;;
39098;SDS011;24844;52.380;7.018;2022-12-18T07:22:28;49.78;;;23.95;;
39098;SDS011;24844;52.380;7.018;2022-12-18T07:24:53;53.72;;;23.15;;
39098;SDS011;24844;52.380;7.018;2022-12-18T07:27:20;64.00;;;23.90;;
39098;SDS011;24844;52.380;7.018;2022-12-18T07:29:45;291.23;;;34.22;;
39098;SDS011;24844;52.380;7.018;2022-12-18T07:32:11;42.63;;;20.02;;
39098;SDS011;24844;52.380;7.018;2022-12-18T07:34:36;47.25;;;22.73;;
39098;SDS011;24844;52.380;7.018;2022-12-18T07:37:02;39.95;;;20.83;;
39098;SDS011;24844;52.380;7.018;2022-12-18T07:39:28;1660.40;;;152.27;;
39098;SDS011;24844;52.380;7.018;2022-12-18T07:41:53;44.67;;;22.70;;
39098;SDS011;24844;52.380;7.018;2022-12-18T07:44:37;47.25;;;21.88;;
39098;SDS011;24844;52.380;7.018;2022-12-18T07:47:03;153.02;;;25.17;;
39098;SDS011;24844;52.380;7.018;2022-12-18T07:49:29;48.65;;;23.55;;
39098;SDS011;24844;52.380;7.018;2022-12-18T07:51:55;48.20;;;23.35;;
39098;SDS011;24844;52.380;7.018;2022-12-18T07:54:22;1076.43;;;69.80;;
39098;SDS011;24844;52.380;7.018;2022-12-18T07:56:49;51.95;;;25.40;;
39098;SDS011;24844;52.380;7.018;2022-12-18T07:59:15;46.08;;;22.00;;
39098;SDS011;24844;52.380;7.018;2022-12-18T08:01:40;42.50;;;19.30;;
39098;SDS011;24844;52.380;7.018;2022-12-18T08:04:06;45.05;;;22.40;;
39098;SDS011;24844;52.380;7.018;2022-12-18T08:06:32;41.10;;;21.17;;
39098;SDS011;24844;52.380;7.018;2022-12-18T08:08:57;44.88;;;20.83;;
39098;SDS011;24844;52.380;7.018;2022-12-18T08:11:24;46.88;;;22.02;;
39098;SDS011;24844;52.380;7.018;2022-12-18T08:13:51;48.40;;;21.02;;
39098;SDS011;24844;52.380;7.018;2022-12-18T08:16:17;41.88;;;22.77;;
39098;SDS011;24844;52.380;7.018;2022-12-18T08:18:43;48.70;;;23.73;;
39098;SDS011;24844;52.380;7.018;2022-12-18T08:21:12;42.03;;;21.75;;
39098;SDS011;24844;52.380;7.018;2022-12-18T08:23:40;46.20;;;20.30;;
39098;SDS011;24844;52.380;7.018;2022-12-18T08:26:05;67.55;;;25.92;;
39098;SDS011;24844;52.380;7.018;2022-12-18T08:28:31;44.10;;;22.63;;
39098;SDS011;24844;52.380;7.018;2022-12-18T08:30:57;65.18;;;25.63;;
39098;SDS011;24844;52.380;7.018;2022-12-18T08:33:22;43.28;;;21.83;;
39098;SDS011;24844;52.380;7.018;2022-12-18T08:35:48;47.80;;;23.70;;
39098;SDS011;24844;52.380;7.018;2022-12-18T08:38:14;64.82;;;26.98;;
39098;SDS011;24844;52.380;7.018;2022-12-18T08:40:39;54.97;;;30.60;;
39098;SDS011;24844;52.380;7.018;2022-12-18T08:43:05;48.75;;;24.75;;
39098;SDS011;24844;52.380;7.018;2022-12-18T08:45:51;38.00;;;20.92;;
39098;SDS011;24844;52.380;7.018;2022-12-18T08:48:16;40.72;;;21.77;;
39098;SDS011;24844;52.380;7.018;2022-12-18T08:50:42;35.42;;;20.20;;
39098;SDS011;24844;52.380;7.018;2022-12-18T08:53:07;39.35;;;20.33;;
39098;SDS011;24844;52.380;7.018;2022-12-18T08:55:33;37.58;;;18.90;;
39098;SDS011;24844;52.380;7.018;2022-12-18T08:57:58;33.58;;;18.77;;
39098;SDS011;24844;52.380;7.018;2022-12-18T09:00:24;33.75;;;17.27;;
39098;SDS011;24844;52.380;7.018;2022-12-18T09:02:50;31.75;;;16.95;;
39098;SDS011;24844;52.380;7.018;2022-12-18T09:05:15;33.08;;;17.55;;
39098;SDS011;24844;52.380;7.018;2022-12-18T09:07:41;36.80;;;19.48;;
39098;SDS011;24844;52.380;7.018;2022-12-18T09:10:06;34.92;;;19.35;;
39098;SDS011;24844;52.380;7.018;2022-12-18T09:12:32;199.80;;;28.90;;
39098;SDS011;24844;52.380;7.018;2022-12-18T09:14:58;33.35;;;20.83;;
39098;SDS011;24844;52.380;7.018;2022-12-18T09:17:24;35.75;;;20.55;;
39098;SDS011;24844;52.380;7.018;2022-12-18T09:19:49;32.47;;;18.08;;
39098;SDS011;24844;52.380;7.018;2022-12-18T09:22:15;145.85;;;21.50;;
39098;SDS011;24844;52.380;7.018;2022-12-18T09:24:41;29.60;;;17.55;;
39098;SDS011;24844;52.380;7.018;2022-12-18T09:27:06;45.83;;;17.48;;
39098;SDS011;24844;52.380;7.018;2022-12-18T09:29:32;32.90;;;16.48;;
39098;SDS011;24844;52.380;7.018;2022-12-18T09:31:58;26.05;;;14.27;;
39098;SDS011;24844;52.380;7.018;2022-12-18T09:34:23;23.73;;;13.00;;
39098;SDS011;24844;52.380;7.018;2022-12-18T09:36:49;19.27;;;12.48;;
39098;SDS011;24844;52.380;7.018;2022-12-18T09:39:15;20.63;;;13.20;;
39098;SDS011;24844;52.380;7.018;2022-12-18T09:41:44;25.77;;;14.93;;
39098;SDS011;24844;52.380;7.018;2022-12-18T09:46:49;20.88;;;12.48;;
39098;SDS011;24844;52.380;7.018;2022-12-18T09:49:20;27.25;;;11.15;;
39098;SDS011;24844;52.380;7.018;2022-12-18T09:52:33;19.45;;;10.30;;
39098;SDS011;24844;52.380;7.018;2022-12-18T09:54:44;14.27;;;9.40;;
39098;SDS011;24844;52.380;7.018;2022-12-18T09:57:25;15.52;;;8.90;;
39098;SDS011;24844;52.380;7.018;2022-12-18T09:59:53;13.57;;;7.68;;
39098;SDS011;24844;52.380;7.018;2022-12-18T10:02:33;16.85;;;8.05;;
39098;SDS011;24844;52.380;7.018;2022-12-18T10:05:02;16.88;;;7.97;;
39098;SDS011;24844;52.380;7.018;2022-12-18T10:08:17;15.52;;;8.90;;
39098;SDS011;24844;52.380;7.018;2022-12-18T10:13:22;16.65;;;8.98;;
39098;SDS011;24844;52.380;7.018;2022-12-18T10:18:42;13.55;;;6.72;;
39098;SDS011;24844;52.380;7.018;2022-12-18T10:21:18;14.55;;;8.85;;
39098;SDS011;24844;52.380;7.018;2022-12-18T10:23:54;14.60;;;7.30;;
39098;SDS011;24844;52.380;7.018;2022-12-18T10:26:24;13.40;;;7.30;;
39098;SDS011;24844;52.380;7.018;2022-12-18T10:28:50;89.07;;;9.10;;
39098;SDS011;24844;52.380;7.018;2022-12-18T10:31:19;8.25;;;4.82;;
39098;SDS011;24844;52.380;7.018;2022-12-18T10:33:46;11.82;;;6.63;;
39098;SDS011;24844;52.380;7.018;2022-12-18T10:36:12;11.38;;;6.82;;
39098;SDS011;24844;52.380;7.018;2022-12-18T10:38:38;14.35;;;6.72;;
39098;SDS011;24844;52.380;7.018;2022-12-18T10:43:30;11.02;;;6.57;;
39098;SDS011;24844;52.380;7.018;2022-12-18T10:51:06;10.73;;;6.13;;
39098;SDS011;24844;52.380;7.018;2022-12-18T10:53:33;10.25;;;6.60;;
39098;SDS011;24844;52.380;7.018;2022-12-18T10:56:02;11.95;;;7.13;;
39098;SDS011;24844;52.380;7.018;2022-12-18T10:58:30;11.40;;;6.45;;
39098;SDS011;24844;52.380;7.018;2022-12-18T11:01:08;10.95;;;5.82;;
39098;SDS011;24844;52.380;7.018;2022-12-18T11:03:44;10.45;;;6.55;;
39098;SDS011;24844;52.380;7.018;2022-12-18T11:06:19;12.05;;;5.93;;
39098;SDS011;24844;52.380;7.018;2022-12-18T11:08:58;12.63;;;6.30;;
39098;SDS011;24844;52.380;7.018;2022-12-18T11:11:27;9.30;;;5.50;;
39098;SDS011;24844;52.380;7.018;2022-12-18T11:16:24;10.98;;;5.78;;
39098;SDS011;24844;52.380;7.018;2022-12-18T11:18:51;10.70;;;6.00;;
39098;SDS011;24844;52.380;7.018;2022-12-18T11:21:17;15.65;;;6.45;;
39098;SDS011;24844;52.380;7.018;2022-12-18T11:23:52;8.95;;;4.03;;
39098;SDS011;24844;52.380;7.018;2022-12-18T11:26:18;13.98;;;6.22;;
39098;SDS011;24844;52.380;7.018;2022-12-18T11:28:46;10.73;;;5.53;;
39098;SDS011;24844;52.380;7.018;2022-12-18T11:34:27;10.23;;;5.55;;
39098;SDS011;24844;52.380;7.018;2022-12-18T11:36:53;8.77;;;5.20;;
39098;SDS011;24844;52.380;7.018;2022-12-18T11:41:53;12.13;;;5.95;;
39098;SDS011;24844;52.380;7.018;2022-12-18T11:49:47;10.75;;;5.80;;
39098;SDS011;24844;52.380;7.018;2022-12-18T11:52:24;10.18;;;6.05;;
39098;SDS011;24844;52.380;7.018;2022-12-18T11:54:56;11.48;;;6.80;;
39098;SDS011;24844;52.380;7.018;2022-12-18T12:11:48;14.70;;;6.50;;
39098;SDS011;24844;52.380;7.018;2022-12-18T12:25:25;13.88;;;6.18;;
39098;SDS011;24844;52.380;7.018;2022-12-18T12:30:52;14.02;;;7.03;;
39098;SDS011;24844;52.380;7.018;2022-12-18T12:36:37;12.68;;;7.53;;
39098;SDS011;24844;52.380;7.018;2022-12-18T12:39:21;11.77;;;6.90;;
39098;SDS011;24844;52.380;7.018;2022-12-18T12:41:53;11.10;;;6.50;;
39098;SDS011;24844;52.380;7.018;2022-12-18T12:44:39;9.82;;;6.18;;
39098;SDS011;24844;52.380;7.018;2022-12-18T12:47:19;12.80;;;6.03;;
39098;SDS011;24844;52.380;7.018;2022-12-18T12:49:50;9.57;;;5.35;;
39098;SDS011;24844;52.380;7.018;2022-12-18T12:54:57;9.52;;;5.65;;
39098;SDS011;24844;52.380;7.018;2022-12-18T12:57:45;11.52;;;6.07;;
39098;SDS011;24844;52.380;7.018;2022-12-18T13:00:24;12.48;;;6.88;;
39098;SDS011;24844;52.380;7.018;2022-12-18T13:02:56;12.05;;;7.57;;
39098;SDS011;24844;52.380;7.018;2022-12-18T13:08:09;10.00;;;5.60;;
39098;SDS011;24844;52.380;7.018;2022-12-18T13:13:06;11.63;;;6.88;;
39098;SDS011;24844;52.380;7.018;2022-12-18T13:18:32;10.27;;;7.05;;
39098;SDS011;24844;52.380;7.018;2022-12-18T13:25:52;10.70;;;6.78;;
39098;SDS011;24844;52.380;7.018;2022-12-18T13:31:01;13.18;;;8.07;;
39098;SDS011;24844;52.380;7.018;2022-12-18T13:35:58;11.88;;;6.53;;
39098;SDS011;24844;52.380;7.018;2022-12-18T13:38:35;13.20;;;6.80;;
39098;SDS011;24844;52.380;7.018;2022-12-18T13:41:04;14.07;;;6.80;;
39098;SDS011;24844;52.380;7.018;2022-12-18T13:43:54;11.98;;;5.60;;
39098;SDS011;24844;52.380;7.018;2022-12-18T13:46:27;11.45;;;6.55;;
39098;SDS011;24844;52.380;7.018;2022-12-18T13:51:23;10.57;;;6.82;;
39098;SDS011;24844;52.380;7.018;2022-12-18T13:56:46;9.75;;;4.85;;
39098;SDS011;24844;52.380;7.018;2022-12-18T14:02:07;12.45;;;5.65;;
39098;SDS011;24844;52.380;7.018;2022-12-18T14:04:38;12.70;;;7.50;;
39098;SDS011;24844;52.380;7.018;2022-12-18T14:07:04;12.55;;;6.65;;
39098;SDS011;24844;52.380;7.018;2022-12-18T14:09:36;14.00;;;7.32;;
39098;SDS011;24844;52.380;7.018;2022-12-18T14:12:05;10.55;;;6.72;;
39098;SDS011;24844;52.380;7.018;2022-12-18T14:14:55;7.97;;;4.70;;
39098;SDS011;24844;52.380;7.018;2022-12-18T14:17:21;11.48;;;6.55;;
39098;SDS011;24844;52.380;7.018;2022-12-18T14:19:48;10.90;;;6.05;;
39098;SDS011;24844;52.380;7.018;2022-12-18T14:22:16;13.10;;;8.63;;
39098;SDS011;24844;52.380;7.018;2022-12-18T14:24:46;28.02;;;11.40;;
39098;SDS011;24844;52.380;7.018;2022-12-18T14:27:29;58.47;;;11.82;;
39098;SDS011;24844;52.380;7.018;2022-12-18T14:29:54;17.52;;;8.10;;
39098;SDS011;24844;52.380;7.018;2022-12-18T14:32:20;11.10;;;7.53;;
39098;SDS011;24844;52.380;7.018;2022-12-18T14:34:50;15.55;;;8.60;;
39098;SDS011;24844;52.380;7.018;2022-12-18T14:37:25;12.48;;;6.70;;
39098;SDS011;24844;52.380;7.018;2022-12-18T14:39:55;13.32;;;7.78;;
39098;SDS011;24844;52.380;7.018;2022-12-18T14:42:22;166.43;;;13.68;;
39098;SDS011;24844;52.380;7.018;2022-12-18T14:44:52;88.70;;;11.25;;
39098;SDS011;24844;52.380;7.018;2022-12-18T14:47:56;17.45;;;10.35;;
39098;SDS011;24844;52.380;7.018;2022-12-18T14:50:23;19.60;;;11.20;;
39098;SDS011;24844;52.380;7.018;2022-12-18T14:52:49;13.23;;;7.72;;
39098;SDS011;24844;52.380;7.018;2022-12-18T14:55:16;15.27;;;9.43;;
39098;SDS011;24844;52.380;7.018;2022-12-18T14:57:42;14.00;;;8.23;;
39098;SDS011;24844;52.380;7.018;2022-12-18T15:00:16;14.23;;;8.10;;
39098;SDS011;24844;52.380;7.018;2022-12-18T15:02:46;15.57;;;8.23;;
39098;SDS011;24844;52.380;7.018;2022-12-18T15:05:17;12.05;;;7.20;;
39098;SDS011;24844;52.380;7.018;2022-12-18T15:07:54;12.40;;;7.63;;
39098;SDS011;24844;52.380;7.018;2022-12-18T15:10:21;15.77;;;7.83;;
39098;SDS011;24844;52.380;7.018;2022-12-18T15:18:20;12.82;;;8.02;;
39098;SDS011;24844;52.380;7.018;2022-12-18T15:23:20;17.02;;;8.70;;
39098;SDS011;24844;52.380;7.018;2022-12-18T15:25:47;13.23;;;7.88;;
39098;SDS011;24844;52.380;7.018;2022-12-18T15:28:24;13.68;;;8.15;;
39098;SDS011;24844;52.380;7.018;2022-12-18T15:31:20;12.88;;;7.30;;
39098;SDS011;24844;52.380;7.018;2022-12-18T15:36:18;12.48;;;8.30;;
39098;SDS011;24844;52.380;7.018;2022-12-18T15:38:45;13.52;;;7.53;;
39098;SDS011;24844;52.380;7.018;2022-12-18T15:41:16;13.63;;;8.15;;
39098;SDS011;24844;52.380;7.018;2022-12-18T15:43:44;13.65;;;8.23;;
39098;SDS011;24844;52.380;7.018;2022-12-18T15:46:12;15.18;;;10.50;;
39098;SDS011;24844;52.380;7.018;2022-12-18T15:48:40;11.52;;;7.80;;
39098;SDS011;24844;52.380;7.018;2022-12-18T15:51:26;12.30;;;7.88;;
39098;SDS011;24844;52.380;7.018;2022-12-18T15:53:58;12.80;;;8.23;;
39098;SDS011;24844;52.380;7.018;2022-12-18T15:56:25;15.88;;;8.85;;
39098;SDS011;24844;52.380;7.018;2022-12-18T15:59:14;15.57;;;7.95;;
39098;SDS011;24844;52.380;7.018;2022-12-18T16:01:42;16.80;;;8.27;;
39098;SDS011;24844;52.380;7.018;2022-12-18T16:04:14;13.02;;;8.00;;
39098;SDS011;24844;52.380;7.018;2022-12-18T16:06:41;12.65;;;8.18;;
39098;SDS011;24844;52.380;7.018;2022-12-18T16:09:07;12.88;;;8.50;;
39098;SDS011;24844;52.380;7.018;2022-12-18T16:11:33;14.15;;;8.05;;
39098;SDS011;24844;52.380;7.018;2022-12-18T16:16:42;11.32;;;7.22;;
39098;SDS011;24844;52.380;7.018;2022-12-18T16:19:07;10.88;;;7.60;;
39098;SDS011;24844;52.380;7.018;2022-12-18T16:21:33;14.50;;;8.52;;
39098;SDS011;24844;52.380;7.018;2022-12-18T16:23:58;12.63;;;8.05;;
39098;SDS011;24844;52.380;7.018;2022-12-18T16:26:24;15.10;;;9.82;;
39098;SDS011;24844;52.380;7.018;2022-12-18T16:28:50;20.80;;;11.48;;
39098;SDS011;24844;52.380;7.018;2022-12-18T16:31:15;14.40;;;8.82;;
39098;SDS011;24844;52.380;7.018;2022-12-18T16:33:41;12.18;;;7.57;;
39098;SDS011;24844;52.380;7.018;2022-12-18T16:36:06;11.07;;;7.43;;
39098;SDS011;24844;52.380;7.018;2022-12-18T16:38:32;10.98;;;7.75;;
39098;SDS011;24844;52.380;7.018;2022-12-18T16:40:58;12.35;;;6.20;;